Time;durP1;ratioP1;P1;durP2;ratioP2;P2;SDS_P1;SDS_P2;PMS_P1;PMS_P2;Temp;Humidity;BMP_temperature;BMP_pressure;BME280_temperature;BME280_humidity;BME280_pressure;Samples;Min_cycle;Max_cycle;Signal;HPM_P1;HPM_P2
2023/08/04 00:00:09;;;;;;;;;;;;;;;14.14;100.00;100978.78;5044622;28;19917;-56
2023/08/04 00:02:34;;;;;;;;;;;;;;;14.11;100.00;100979.63;5039310;28;20268;-57
2023/08/04 00:04:59;;;;;;;;;;;;;;;14.11;100.00;100983.97;5035462;28;20412;-56
2023/08/04 00:07:25;;;;;;;;;;;;;;;14.06;100.00;100979.56;5034822;28;19913;-57
2023/08/04 00:09:50;;;;;;;;;;;;;;;14.07;100.00;100985.69;5043830;28;19935;-57
2023/08/04 00:12:15;;;;;;;;;;;;;;;14.03;100.00;100984.78;5046051;28;19925;-57
2023/08/04 00:14:40;;;;;;;;;;;;;;;14.01;100.00;100983.00;5037580;28;19913;-57
2023/08/04 00:17:05;;;;;;;;;;;;;;;13.98;100.00;100986.44;5046825;28;19912;-57
2023/08/04 00:19:30;;;;;;;;;;;;;;;13.96;100.00;100989.91;5045385;28;19938;-57
2023/08/04 00:21:56;;;;;;;;;;;;;;;13.93;100.00;100989.88;5042262;28;19913;-57
2023/08/04 00:24:21;;;;;;;;;;;;;;;13.91;100.00;100997.72;5043148;28;20456;-57
2023/08/04 00:26:46;;;;;;;;;;;;;;;13.91;100.00;100995.09;5041058;28;19912;-57
2023/08/04 00:29:11;;;;;;;;;;;;;;;13.91;100.00;100995.97;5045647;28;20390;-57
2023/08/04 00:31:37;;;;;;;;;;;;;;;13.89;100.00;100995.06;5050055;28;19916;-57
2023/08/04 00:34:02;;;;;;;;;;;;;;;13.88;100.00;100997.69;5044712;28;19913;-57
2023/08/04 00:36:27;;;;;;;;;;;;;;;13.84;100.00;100994.13;5044160;28;19920;-56
2023/08/04 00:38:52;;;;;;;;;;;;;;;13.84;100.00;101001.13;5042385;28;19996;-57
2023/08/04 00:41:17;;;;;;;;;;;;;;;13.83;100.00;101001.97;5042208;28;20002;-57
2023/08/04 00:43:43;;;;;;;;;;;;;;;13.81;100.00;100995.84;5042659;28;19919;-57
2023/08/04 00:46:08;;;;;;;;;;;;;;;13.79;100.00;101008.03;5042573;28;19912;-57
2023/08/04 00:48:35;;;;;;;;;;;;;;;13.78;100.00;101006.28;5044410;28;20061;-57
2023/08/04 00:51:01;;;;;;;;;;;;;;;13.78;100.00;101001.91;5037213;28;19927;-57
2023/08/04 00:53:26;;;;;;;;;;;;;;;13.75;100.00;101007.13;5045914;28;19916;-57
2023/08/04 00:55:51;;;;;;;;;;;;;;;13.72;100.00;101010.56;5043921;28;19919;-57
2023/08/04 00:58:17;;;;;;;;;;;;;;;13.71;100.00;101016.66;5044932;28;20382;-57
2023/08/04 01:00:42;;;;;;;;;;;;;;;13.70;100.00;101017.53;5036283;28;19916;-57
2023/08/04 01:03:08;;;;;;;;;;;;;;;13.68;100.00;101021.84;5043782;28;19913;-57
2023/08/04 01:05:47;;;;;;;;;;;;;;;13.68;100.00;101021.00;5041960;28;19917;-56
2023/08/04 01:08:21;;;;;;;;;;;;;;;13.68;100.00;101026.22;5044927;28;19960;-57
2023/08/04 01:10:51;;;;;;;;;;;;;;;13.69;100.00;101022.75;5037788;28;19956;-57
2023/08/04 01:13:21;;;;;;;;;;;;;;;13.71;100.00;101026.25;5046602;28;20003;-57
2023/08/04 01:15:47;;;;;;;;;;;;;;;13.69;100.00;101017.53;5047910;28;19983;-57
2023/08/04 01:18:12;;;;;;;;;;;;;;;13.67;100.00;101019.22;5045732;28;19987;-57
2023/08/04 01:20:37;;;;;;;;;;;;;;;13.68;100.00;101031.47;5049585;28;19923;-56
2023/08/04 01:23:02;;;;;;;;;;;;;;;13.67;100.00;101033.22;5051748;28;19916;-57
2023/08/04 01:25:29;;;;;;;;;;;;;;;13.68;100.00;101031.47;5051534;28;19928;-57
2023/08/04 01:27:59;;;;;;;;;;;;;;;13.68;100.00;101028.84;5052211;28;19920;-56
2023/08/04 01:30:25;;;;;;;;;;;;;;;13.66;100.00;101023.59;5048624;28;19917;-57
2023/08/04 01:32:50;;;;;;;;;;;;;;;13.65;100.00;101034.91;5031990;28;20264;-57
2023/08/04 01:35:16;;;;;;;;;;;;;;;13.65;100.00;101042.78;5050658;28;19952;-57
2023/08/04 01:37:43;;;;;;;;;;;;;;;13.66;100.00;101041.91;5052143;28;19948;-57
2023/08/04 01:40:09;;;;;;;;;;;;;;;13.63;100.00;101038.34;5037323;28;19921;-57
2023/08/04 01:42:34;;;;;;;;;;;;;;;13.59;100.00;101047.06;5047899;28;19912;-57
2023/08/04 01:44:59;;;;;;;;;;;;;;;13.55;100.00;101041.75;5044186;28;19912;-57
2023/08/04 01:47:24;;;;;;;;;;;;;;;13.54;100.00;101044.34;5042329;28;20007;-57
2023/08/04 01:49:49;;;;;;;;;;;;;;;13.54;100.00;101044.34;5047078;28;19942;-57
2023/08/04 01:52:15;;;;;;;;;;;;;;;13.55;100.00;101054.84;5048318;28;20367;-57
2023/08/04 01:54:40;;;;;;;;;;;;;;;13.54;100.00;101055.72;5042173;28;19916;-57
2023/08/04 01:57:05;;;;;;;;;;;;;;;13.54;100.00;101055.72;5048702;28;19999;-57
2023/08/04 01:59:30;;;;;;;;;;;;;;;13.54;100.00;101054.81;5049790;28;20003;-57
2023/08/04 02:01:56;;;;;;;;;;;;;;;13.53;100.00;101047.84;5044581;28;19913;-57
2023/08/04 02:04:21;;;;;;;;;;;;;;;13.52;100.00;101056.53;5047053;28;19925;-57
2023/08/04 02:06:46;;;;;;;;;;;;;;;13.49;100.00;101054.75;5047288;28;20039;-57
2023/08/04 02:09:12;;;;;;;;;;;;;;;13.52;100.00;101051.31;5040574;28;19988;-57
2023/08/04 02:11:37;;;;;;;;;;;;;;;13.52;100.00;101056.53;5041798;28;20165;-57
2023/08/04 02:14:02;;;;;;;;;;;;;;;13.52;100.00;101060.03;5047936;28;19939;-57
2023/08/04 02:16:28;;;;;;;;;;;;;;;13.53;100.00;101060.94;5046617;28;19940;-57
2023/08/04 02:18:59;;;;;;;;;;;;;;;13.54;100.00;101063.56;5045266;28;20015;-57
2023/08/04 02:21:24;;;;;;;;;;;;;;;13.57;100.00;101065.38;5042706;28;19923;-57
2023/08/04 02:23:49;;;;;;;;;;;;;;;13.55;100.00;101067.94;5050630;28;19913;-56
2023/08/04 02:26:14;;;;;;;;;;;;;;;13.55;100.00;101070.53;5047841;28;20409;-56
2023/08/04 02:28:40;;;;;;;;;;;;;;;13.52;100.00;101067.03;5050676;28;19921;-56
2023/08/04 02:31:05;;;;;;;;;;;;;;;13.50;100.00;101066.13;5050730;28;19916;-57
2023/08/04 02:33:30;;;;;;;;;;;;;;;13.47;100.00;101068.66;5039825;28;19912;-57
2023/08/04 02:35:59;;;;;;;;;;;;;;;13.47;100.00;101068.66;5045041;28;19909;-57
2023/08/04 02:38:25;;;;;;;;;;;;;;;13.44;100.00;101069.53;5048614;28;19913;-57
2023/08/04 02:40:50;;;;;;;;;;;;;;;13.43;100.00;101069.50;5048802;28;19916;-57
2023/08/04 02:43:15;;;;;;;;;;;;;;;13.42;100.00;101073.84;5046999;28;20016;-57
2023/08/04 02:45:46;;;;;;;;;;;;;;;13.41;100.00;101064.22;5040663;28;20002;-57
2023/08/04 02:48:11;;;;;;;;;;;;;;;13.41;100.00;101079.06;5045176;28;20159;-57
2023/08/04 02:50:36;;;;;;;;;;;;;;;13.38;100.00;101069.41;5046756;28;20682;-57
2023/08/04 02:53:01;;;;;;;;;;;;;;;13.37;100.00;101070.28;5046982;28;19999;-57
2023/08/04 02:55:29;;;;;;;;;;;;;;;13.35;100.00;101072.88;5048339;28;19938;-57
2023/08/04 02:57:54;;;;;;;;;;;;;;;13.35;100.00;101069.38;5046940;28;19959;-56
2023/08/04 03:00:19;;;;;;;;;;;;;;;13.35;100.00;101070.25;5042554;28;19944;-57
2023/08/04 03:02:44;;;;;;;;;;;;;;;13.34;100.00;101071.13;5043369;28;20297;-57
2023/08/04 03:05:09;;;;;;;;;;;;;;;13.35;100.00;101074.59;5037518;28;19913;-57
2023/08/04 03:07:35;;;;;;;;;;;;;;;13.38;100.00;101077.25;5044686;28;19921;-57
2023/08/04 03:10:00;;;;;;;;;;;;;;;13.41;100.00;101079.06;5049346;28;19913;-57
2023/08/04 03:12:25;;;;;;;;;;;;;;;13.41;100.00;101084.28;5048696;28;20440;-57
2023/08/04 03:14:50;;;;;;;;;;;;;;;13.41;100.00;101073.81;5047676;28;20385;-57
2023/08/04 03:17:16;;;;;;;;;;;;;;;13.38;100.00;101080.78;5048343;28;19920;-57
2023/08/04 03:19:41;;;;;;;;;;;;;;;13.37;100.00;101079.00;5035808;28;19913;-56
2023/08/04 03:22:06;;;;;;;;;;;;;;;13.39;100.00;101085.13;5044282;28;19913;-57
2023/08/04 03:24:31;;;;;;;;;;;;;;;13.40;100.00;101080.81;5043988;28;19912;-57
2023/08/04 03:26:56;;;;;;;;;;;;;;;13.42;100.00;101086.06;5040570;28;19919;-56
2023/08/04 03:29:22;;;;;;;;;;;;;;;13.39;100.00;101087.75;5042924;28;20042;-57
2023/08/04 03:31:47;;;;;;;;;;;;;;;13.40;100.00;101088.66;5041041;28;19938;-57
2023/08/04 03:34:12;;;;;;;;;;;;;;;13.41;100.00;101094.75;5043008;28;19998;-56
2023/08/04 03:36:37;;;;;;;;;;;;;;;13.39;100.00;101086.88;5043452;28;19920;-56
2023/08/04 03:39:02;;;;;;;;;;;;;;;13.39;100.00;101087.75;5042201;28;19932;-56
2023/08/04 03:41:28;;;;;;;;;;;;;;;13.41;100.00;101089.53;5040904;28;19916;-57
2023/08/04 03:43:53;;;;;;;;;;;;;;;13.41;100.00;101086.91;5041024;28;19912;-57
2023/08/04 03:46:18;;;;;;;;;;;;;;;13.41;100.00;101089.53;5041879;28;20135;-57
2023/08/04 03:48:44;;;;;;;;;;;;;;;13.39;100.00;101092.13;5041683;28;19913;-57
2023/08/04 03:51:09;;;;;;;;;;;;;;;13.38;100.00;101090.34;5042202;28;20468;-57
2023/08/04 03:53:34;;;;;;;;;;;;;;;13.35;100.00;101090.31;5041637;28;19913;-57
2023/08/04 03:55:59;;;;;;;;;;;;;;;13.35;100.00;101087.69;5040238;28;20011;-57
2023/08/04 03:58:24;;;;;;;;;;;;;;;13.35;100.00;101096.44;5040264;28;20586;-57
2023/08/04 04:00:50;;;;;;;;;;;;;;;13.34;100.00;101089.44;5045879;28;20294;-57
2023/08/04 04:03:15;;;;;;;;;;;;;;;13.34;100.00;101089.44;5046223;28;19909;-57
2023/08/04 04:05:40;;;;;;;;;;;;;;;13.36;100.00;101106.03;5046178;28;20003;-57
2023/08/04 04:08:05;;;;;;;;;;;;;;;13.39;100.00;101098.22;5042114;28;20296;-57
2023/08/04 04:10:31;;;;;;;;;;;;;;;13.41;100.00;101097.38;5042457;28;19913;-57
2023/08/04 04:12:56;;;;;;;;;;;;;;;13.42;100.00;101099.16;5041926;28;19935;-56
2023/08/04 04:15:21;;;;;;;;;;;;;;;13.42;100.00;101099.16;5042902;28;20290;-57
2023/08/04 04:17:46;;;;;;;;;;;;;;;13.42;100.00;101101.75;5039875;28;19917;-57
2023/08/04 04:20:12;;;;;;;;;;;;;;;13.42;100.00;101096.53;5038369;28;20012;-57
2023/08/04 04:22:37;;;;;;;;;;;;;;;13.39;100.00;101106.06;5045757;28;19919;-57
2023/08/04 04:25:02;;;;;;;;;;;;;;;13.38;100.00;101112.19;5045899;28;19912;-57
2023/08/04 04:27:28;;;;;;;;;;;;;;;13.40;100.00;101114.84;5049041;28;20067;-57
2023/08/04 04:29:53;;;;;;;;;;;;;;;13.40;100.00;101120.06;5047928;28;19913;-57
2023/08/04 04:32:18;;;;;;;;;;;;;;;13.41;100.00;101120.94;5041039;28;19923;-57
2023/08/04 04:34:43;;;;;;;;;;;;;;;13.41;100.00;101115.69;5032843;28;19921;-57
2023/08/04 04:37:09;;;;;;;;;;;;;;;13.41;100.00;101113.09;5042181;28;20290;-57
2023/08/04 04:39:34;;;;;;;;;;;;;;;13.40;100.00;101120.06;5037009;28;20570;-57
2023/08/04 04:41:59;;;;;;;;;;;;;;;13.41;100.00;101115.69;5053947;28;20366;-57
2023/08/04 04:44:24;;;;;;;;;;;;;;;13.39;100.00;101119.16;5023780;28;19974;-57
2023/08/04 04:46:50;;;;;;;;;;;;;;;13.42;100.00;101127.94;5049743;28;20353;-57
2023/08/04 04:49:16;;;;;;;;;;;;;;;13.42;100.00;101127.94;5047464;28;19919;-57
2023/08/04 04:51:42;;;;;;;;;;;;;;;13.43;100.00;101133.19;5049115;28;19916;-57
2023/08/04 04:54:07;;;;;;;;;;;;;;;13.43;100.00;101132.31;5047747;28;20330;-57
2023/08/04 04:56:32;;;;;;;;;;;;;;;13.43;100.00;101138.44;5041250;28;20485;-57
2023/08/04 04:58:57;;;;;;;;;;;;;;;13.44;100.00;101132.34;5045398;28;19920;-57
2023/08/04 05:01:22;;;;;;;;;;;;;;;13.44;100.00;101139.31;5050150;28;20244;-57
2023/08/04 05:03:48;;;;;;;;;;;;;;;13.44;100.00;101141.91;5047338;28;19913;-57
2023/08/04 05:06:13;;;;;;;;;;;;;;;13.45;100.00;101154.16;5045437;28;20371;-57
2023/08/04 05:08:38;;;;;;;;;;;;;;;13.43;100.00;101150.66;5048025;28;19944;-57
2023/08/04 05:11:03;;;;;;;;;;;;;;;13.43;100.00;101155.88;5047720;28;19917;-56
2023/08/04 05:13:29;;;;;;;;;;;;;;;13.45;100.00;101159.41;5046278;28;20498;-57
2023/08/04 05:15:54;;;;;;;;;;;;;;;13.46;100.00;101154.19;5051347;28;20397;-57
2023/08/04 05:18:19;;;;;;;;;;;;;;;13.48;100.00;101152.47;5049766;28;19917;-57
2023/08/04 05:20:45;;;;;;;;;;;;;;;13.49;100.00;101158.59;5047520;28;20374;-56
2023/08/04 05:23:11;;;;;;;;;;;;;;;13.53;100.00;101160.41;5049115;28;19924;-57
2023/08/04 05:25:36;;;;;;;;;;;;;;;13.56;100.00;101163.94;5044444;28;19917;-57
2023/08/04 05:28:21;;;;;;;;;;;;;;;13.54;100.00;101160.44;5050000;28;20377;-57
2023/08/04 05:30:46;;;;;;;;;;;;;;;13.54;100.00;101181.38;5047438;28;20379;-57
2023/08/04 05:33:12;;;;;;;;;;;;;;;13.52;100.00;101171.75;5048870;28;19923;-57
2023/08/04 05:35:38;;;;;;;;;;;;;;;13.49;100.00;101175.19;5050183;28;19956;-57
2023/08/04 05:38:04;;;;;;;;;;;;;;;13.52;100.00;101180.47;5050671;28;19913;-57
2023/08/04 05:40:29;;;;;;;;;;;;;;;13.57;100.00;101177.94;5050004;28;19905;-56
2023/08/04 05:42:54;;;;;;;;;;;;;;;13.61;100.00;101176.25;5049081;28;19928;-57
2023/08/04 05:45:19;;;;;;;;;;;;;;;13.65;100.00;101171.06;5050881;28;20391;-57
2023/08/04 05:47:45;;;;;;;;;;;;;;;13.71;100.00;101171.16;5049045;28;19963;-57
2023/08/04 05:50:10;;;;;;;;;;;;;;;13.76;100.00;101170.38;5050015;28;19905;-57
2023/08/04 05:52:35;;;;;;;;;;;;;;;13.82;100.00;101181.81;5045741;28;19931;-57
2023/08/04 05:55:00;;;;;;;;;;;;;;;13.88;100.00;101181.03;5046388;28;19920;-57
2023/08/04 05:57:26;;;;;;;;;;;;;;;13.91;100.00;101181.97;5042795;28;19919;-57
2023/08/04 05:59:51;;;;;;;;;;;;;;;13.97;100.00;101189.03;5048835;28;19912;-57
2023/08/04 06:02:17;;;;;;;;;;;;;;;14.05;100.00;101195.28;5046506;28;19920;-57
2023/08/04 06:04:42;;;;;;;;;;;;;;;14.07;100.00;101182.19;5049543;28;19982;-57
2023/08/04 06:07:07;;;;;;;;;;;;;;;14.09;100.00;101185.72;5048580;28;19913;-57
2023/08/04 06:09:32;;;;;;;;;;;;;;;14.13;100.00;101186.66;5047451;28;20146;-57
2023/08/04 06:11:58;;;;;;;;;;;;;;;14.14;100.00;101189.28;5029533;28;20620;-57
2023/08/04 06:14:23;;;;;;;;;;;;;;;14.18;100.00;101195.44;5048509;28;19913;-57
2023/08/04 06:16:48;;;;;;;;;;;;;;;14.24;100.00;101195.56;5048974;28;19920;-57
2023/08/04 06:19:13;;;;;;;;;;;;;;;14.30;100.00;101198.25;5048148;28;19928;-57
2023/08/04 06:21:38;;;;;;;;;;;;;;;14.36;100.00;101203.56;5046848;28;20434;-57
2023/08/04 06:24:04;;;;;;;;;;;;;;;14.42;100.00;101206.31;5050767;28;19913;-57
2023/08/04 06:26:29;;;;;;;;;;;;;;;14.49;100.00;101209.00;5049963;28;19916;-57
2023/08/04 06:28:54;;;;;;;;;;;;;;;14.57;100.00;101205.59;5051016;28;19924;-57
2023/08/04 06:31:19;;;;;;;;;;;;;;;14.68;100.00;101210.13;5048937;28;20022;-57
2023/08/04 06:33:45;;;;;;;;;;;;;;;14.79;100.00;101221.66;5049624;28;20179;-57
2023/08/04 06:36:10;;;;;;;;;;;;;;;14.92;100.00;101222.69;5048111;28;19913;-57
2023/08/04 06:38:35;;;;;;;;;;;;;;;15.08;100.00;101229.84;5047441;28;19921;-57
2023/08/04 06:41:00;;;;;;;;;;;;;;;15.13;100.00;101224.66;5046205;28;19913;-57
2023/08/04 06:43:25;;;;;;;;;;;;;;;15.21;100.00;101224.75;5051002;28;20306;-57
2023/08/04 06:45:50;;;;;;;;;;;;;;;15.29;100.00;101234.47;5046944;28;20438;-57
2023/08/04 06:48:16;;;;;;;;;;;;;;;15.38;100.00;101231.06;5048788;28;19962;-58
2023/08/04 06:50:41;;;;;;;;;;;;;;;15.46;100.00;101237.25;5047796;28;19920;-57
2023/08/04 06:53:06;;;;;;;;;;;;;;;15.57;100.00;101237.38;5050251;28;19919;-57
2023/08/04 06:55:31;;;;;;;;;;;;;;;15.76;100.00;101241.03;5031342;28;19951;-58
2023/08/04 06:57:56;;;;;;;;;;;;;;;15.84;100.00;101242.88;5048187;28;19913;-57
2023/08/04 07:00:22;;;;;;;;;;;;;;;15.90;100.00;101240.28;5045927;28;20432;-57
2023/08/04 07:02:47;;;;;;;;;;;;;;;15.99;100.00;101246.50;5047814;28;19952;-57
2023/08/04 07:05:13;;;;;;;;;;;;;;;16.04;100.00;101251.78;5047968;28;19928;-58
2023/08/04 07:07:38;;;;;;;;;;;;;;;16.15;100.00;101244.88;5048915;28;19912;-57
2023/08/04 07:10:04;;;;;;;;;;;;;;;16.19;100.00;101247.50;5047884;28;19913;-58
2023/08/04 07:12:29;;;;;;;;;;;;;;;16.23;100.00;101252.78;5042470;28;19928;-57
2023/08/04 07:14:54;;;;;;;;;;;;;;;16.30;100.00;101249.34;5044787;28;19921;-58
2023/08/04 07:17:19;;;;;;;;;;;;;;;16.38;100.00;101252.03;5046331;28;19913;-57
2023/08/04 07:19:46;;;;;;;;;;;;;;;16.44;100.00;101257.31;5047737;28;19959;-57
2023/08/04 07:22:11;;;;;;;;;;;;;;;16.40;100.00;101260.81;5042195;28;19967;-58
2023/08/04 07:24:36;;;;;;;;;;;;;;;16.42;100.00;101266.06;5044068;28;19916;-58
2023/08/04 07:27:01;;;;;;;;;;;;;;;16.41;100.00;101256.41;5041474;28;20003;-58
2023/08/04 07:29:33;;;;;;;;;;;;;;;16.47;100.00;101259.09;5049788;28;19919;-57
2023/08/04 07:31:58;;;;;;;;;;;;;;;16.49;100.00;101258.22;5044804;28;19917;-57
2023/08/04 07:34:23;;;;;;;;;;;;;;;16.50;100.00;101259.13;5042335;28;19938;-58
2023/08/04 07:36:48;;;;;;;;;;;;;;;16.51;100.00;101264.38;5051034;28;20003;-58
2023/08/04 07:39:13;;;;;;;;;;;;;;;16.59;100.00;101260.91;5021109;28;19916;-58
2023/08/04 07:41:39;;;;;;;;;;;;;;;16.62;100.00;101267.06;5046584;28;19971;-58
2023/08/04 07:44:04;;;;;;;;;;;;;;;16.68;100.00;101268.84;5041800;28;19924;-58
2023/08/04 07:46:29;;;;;;;;;;;;;;;16.71;100.00;101266.22;5049777;28;19922;-58
2023/08/04 07:48:55;;;;;;;;;;;;;;;16.67;100.00;101269.75;5042826;28;20070;-57
2023/08/04 07:51:20;;;;;;;;;;;;;;;16.66;100.00;101273.25;5042568;28;20145;-58
2023/08/04 07:53:46;;;;;;;;;;;;;;;16.59;100.00;101272.31;5041133;28;19923;-58
2023/08/04 07:56:11;;;;;;;;;;;;;;;16.61;100.00;101274.94;5041342;28;19913;-57
2023/08/04 07:58:37;;;;;;;;;;;;;;;16.68;100.00;101275.00;5041443;28;20088;-58
2023/08/04 08:01:05;;;;;;;;;;;;;;;16.74;100.00;101278.53;5040932;28;19913;-58
2023/08/04 08:03:34;;;;;;;;;;;;;;;16.77;100.00;101278.53;5038781;28;20452;-58
2023/08/04 08:05:59;;;;;;;;;;;;;;;16.88;100.00;101283.91;5046499;28;19921;-58
2023/08/04 08:08:25;;;;;;;;;;;;;;;16.89;100.00;101290.91;5044746;28;19920;-57
2023/08/04 08:10:51;;;;;;;;;;;;;;;16.96;100.00;101287.44;5046936;28;20297;-57
2023/08/04 08:13:16;;;;;;;;;;;;;;;16.95;100.00;101291.81;5044081;28;19920;-58
2023/08/04 08:15:41;;;;;;;;;;;;;;;16.96;100.00;101293.59;5048942;28;19936;-58
2023/08/04 08:18:06;;;;;;;;;;;;;;;16.94;100.00;101289.19;5047100;28;19916;-58
2023/08/04 08:20:31;;;;;;;;;;;;;;;16.97;100.00;101286.56;5040121;28;19963;-58
2023/08/04 08:22:56;;;;;;;;;;;;;;;17.01;100.00;101285.72;5048579;28;19919;-58
2023/08/04 08:25:22;;;;;;;;;;;;;;;17.08;100.00;101287.50;5045652;28;20278;-58
2023/08/04 08:27:47;;;;;;;;;;;;;;;17.15;100.00;101293.69;5046936;28;19913;-58
2023/08/04 08:30:12;;;;;;;;;;;;;;;17.26;99.12;101302.47;5041666;28;19913;-58
2023/08/04 08:32:37;;;;;;;;;;;;;;;17.30;100.00;101300.75;5041504;28;19916;-56
2023/08/04 08:35:03;;;;;;;;;;;;;;;17.40;99.78;101302.53;5048463;28;19912;-58
2023/08/04 08:37:28;;;;;;;;;;;;;;;17.49;99.15;101313.06;5028290;28;19913;-58
2023/08/04 08:39:54;;;;;;;;;;;;;;;17.61;99.12;101306.97;5048814;28;20002;-58
2023/08/04 08:42:19;;;;;;;;;;;;;;;17.72;99.81;101306.97;5048345;28;20295;-58
2023/08/04 08:44:44;;;;;;;;;;;;;;;17.77;99.14;101310.50;5048106;28;19912;-57
2023/08/04 08:47:09;;;;;;;;;;;;;;;17.75;100.00;101314.00;5042252;28;19943;-58
2023/08/04 08:49:40;;;;;;;;;;;;;;;17.78;97.88;101322.78;5044647;28;19960;-58
2023/08/04 08:52:11;;;;;;;;;;;;;;;17.82;98.90;101318.41;5041295;28;19917;-58
2023/08/04 08:54:37;;;;;;;;;;;;;;;17.76;99.81;101323.69;5040588;28;19995;-58
2023/08/04 08:57:02;;;;;;;;;;;;;;;17.74;100.00;101321.03;5046325;28;20443;-58
2023/08/04 08:59:28;;;;;;;;;;;;;;;17.77;100.00;101321.06;5050323;28;19909;-58
2023/08/04 09:01:54;;;;;;;;;;;;;;;17.75;100.00;101322.78;5044070;28;19916;-58
2023/08/04 09:04:20;;;;;;;;;;;;;;;17.74;100.00;101331.56;5046479;28;20489;-58
2023/08/04 09:06:45;;;;;;;;;;;;;;;17.68;99.04;101332.47;5046367;28;19905;-59
2023/08/04 09:09:10;;;;;;;;;;;;;;;17.62;98.54;101336.84;5048642;28;19913;-58
2023/08/04 09:11:36;;;;;;;;;;;;;;;17.43;100.00;101342.03;5044864;28;20355;-57
2023/08/04 09:14:02;;;;;;;;;;;;;;;17.35;100.00;101331.50;5047274;28;19913;-58
2023/08/04 09:16:33;;;;;;;;;;;;;;;17.32;100.00;101335.84;5050339;28;19915;-58
2023/08/04 09:19:17;;;;;;;;;;;;;;;17.32;100.00;101338.47;5038896;28;20374;-57
2023/08/04 09:21:42;;;;;;;;;;;;;;;17.34;100.00;101342.88;5031366;28;19927;-58
2023/08/04 09:24:08;;;;;;;;;;;;;;;17.38;100.00;101341.16;5043252;28;19913;-58
2023/08/04 09:26:40;;;;;;;;;;;;;;;17.43;100.00;101338.53;5042298;28;19905;-58
2023/08/04 09:29:06;;;;;;;;;;;;;;;17.49;100.00;101347.31;5045636;28;19913;-58
2023/08/04 09:31:35;;;;;;;;;;;;;;;17.56;100.00;101340.31;5044982;28;19939;-59
2023/08/04 09:34:02;;;;;;;;;;;;;;;17.56;100.00;101340.31;5045889;28;19924;-58
2023/08/04 09:36:28;;;;;;;;;;;;;;;17.71;100.00;101339.47;5041810;28;19992;-59
2023/08/04 09:39:00;;;;;;;;;;;;;;;17.73;100.00;101343.88;5042946;28;20008;-58
2023/08/04 09:41:25;;;;;;;;;;;;;;;17.75;100.00;101337.75;5044548;28;20443;-58
2023/08/04 09:43:52;;;;;;;;;;;;;;;17.76;100.00;101340.38;5045512;28;19916;-58
2023/08/04 09:46:17;;;;;;;;;;;;;;;17.90;100.00;101345.69;5045189;28;20062;-58
2023/08/04 09:48:42;;;;;;;;;;;;;;;17.99;100.00;101348.34;5041979;28;20383;-57
2023/08/04 09:51:11;;;;;;;;;;;;;;;18.15;100.00;101341.31;5045568;28;20011;-59
2023/08/04 09:53:47;;;;;;;;;;;;;;;18.19;99.62;101335.19;5045910;28;19990;-59
2023/08/04 09:56:13;;;;;;;;;;;;;;;18.37;99.37;101338.69;5035883;28;19909;-59
2023/08/04 09:58:39;;;;;;;;;;;;;;;18.49;98.02;101343.94;5047954;28;19913;-59
2023/08/04 10:01:05;;;;;;;;;;;;;;;18.66;96.97;101345.69;5042939;28;19913;-58
2023/08/04 10:03:30;;;;;;;;;;;;;;;18.78;97.52;101340.38;5035789;28;19912;-59
2023/08/04 10:06:00;;;;;;;;;;;;;;;19.09;98.32;101350.88;5045805;28;19919;-59
2023/08/04 10:08:27;;;;;;;;;;;;;;;19.07;97.11;101352.63;5034783;28;19909;-59
2023/08/04 10:10:53;;;;;;;;;;;;;;;18.87;97.15;101353.59;5045455;28;19960;-58
2023/08/04 10:13:20;;;;;;;;;;;;;;;18.69;97.17;101358.88;5028700;28;19954;-58
2023/08/04 10:15:46;;;;;;;;;;;;;;;18.40;97.49;101359.78;5050661;28;20637;-58
2023/08/04 10:18:11;;;;;;;;;;;;;;;18.06;97.43;101357.13;5050368;28;19924;-57
2023/08/04 10:20:36;;;;;;;;;;;;;;;17.72;99.80;101357.06;5048034;28;19917;-57
2023/08/04 10:23:02;;;;;;;;;;;;;;;17.60;100.00;101350.00;5047927;28;19928;-57
2023/08/04 10:25:28;;;;;;;;;;;;;;;17.56;100.00;101349.09;5050871;28;19927;-57
2023/08/04 10:27:53;;;;;;;;;;;;;;;17.58;100.00;101343.84;5050523;28;19912;-57
2023/08/04 10:30:18;;;;;;;;;;;;;;;17.65;100.00;101342.09;5050191;28;20393;-58
2023/08/04 10:32:44;;;;;;;;;;;;;;;17.68;100.00;101335.09;5052041;28;20430;-58
2023/08/04 10:35:16;;;;;;;;;;;;;;;17.82;100.00;101348.28;5047187;28;19916;-58
2023/08/04 10:37:44;;;;;;;;;;;;;;;18.16;100.00;101345.72;5046432;28;19927;-58
2023/08/04 10:40:10;;;;;;;;;;;;;;;18.41;100.00;101345.72;5051213;28;19966;-58
2023/08/04 10:42:55;;;;;;;;;;;;;;;18.56;100.00;101353.59;5049751;28;19916;-58
2023/08/04 10:45:20;;;;;;;;;;;;;;;18.81;100.00;101355.31;5046640;28;19944;-59
2023/08/04 10:47:47;;;;;;;;;;;;;;;19.00;100.00;101361.47;5048495;28;19962;-58
2023/08/04 10:50:12;;;;;;;;;;;;;;;19.32;100.00;101363.09;5028618;28;19913;-58
2023/08/04 10:52:38;;;;;;;;;;;;;;;19.42;99.83;101354.25;5050918;28;19970;-59
2023/08/04 10:55:05;;;;;;;;;;;;;;;19.43;100.00;101363.94;5049368;28;19999;-59
2023/08/04 10:57:33;;;;;;;;;;;;;;;19.42;98.86;101359.53;5047637;28;20287;-59
2023/08/04 11:00:06;;;;;;;;;;;;;;;19.37;99.10;101367.50;5049397;28;20614;-59
2023/08/04 11:02:31;;;;;;;;;;;;;;;19.30;99.48;101371.03;5047756;28;19919;-59
2023/08/04 11:04:57;;;;;;;;;;;;;;;19.38;99.60;101369.25;5031223;28;19912;-58
2023/08/04 11:07:24;;;;;;;;;;;;;;;19.66;94.86;101362.97;5048525;28;19909;-59
2023/08/04 11:09:50;;;;;;;;;;;;;;;20.03;93.58;101370.66;5049142;28;19915;-59
2023/08/04 11:12:15;;;;;;;;;;;;;;;20.20;90.62;101367.91;5047413;28;19974;-59
2023/08/04 11:14:41;;;;;;;;;;;;;;;20.22;92.66;101368.75;5050021;28;19916;-59
2023/08/04 11:17:13;;;;;;;;;;;;;;;20.46;93.04;101373.84;5047374;28;20003;-59
2023/08/04 11:19:38;;;;;;;;;;;;;;;20.78;83.89;101377.09;5030730;28;19935;-59
2023/08/04 11:22:07;;;;;;;;;;;;;;;20.64;86.83;101375.44;5048591;28;20371;-59
2023/08/04 11:24:32;;;;;;;;;;;;;;;20.49;88.67;101383.53;5048243;28;19909;-59
2023/08/04 11:26:58;;;;;;;;;;;;;;;20.26;91.32;101389.91;5046850;28;19920;-59
2023/08/04 11:29:25;;;;;;;;;;;;;;;20.21;94.45;101391.69;5031719;28;20343;-59
2023/08/04 11:31:50;;;;;;;;;;;;;;;20.33;92.74;101393.38;5022595;28;19921;-59
2023/08/04 11:34:16;;;;;;;;;;;;;;;20.45;89.88;101401.22;5044103;28;19966;-59
2023/08/04 11:36:41;;;;;;;;;;;;;;;20.29;91.82;101399.56;5043434;28;19909;-59
2023/08/04 11:39:06;;;;;;;;;;;;;;;20.27;85.96;101404.88;5043819;28;20390;-59
2023/08/04 11:41:32;;;;;;;;;;;;;;;20.03;87.94;101399.75;5048942;28;19920;-59
2023/08/04 11:43:58;;;;;;;;;;;;;;;20.08;90.99;101397.97;5045162;28;19920;-59
2023/08/04 11:46:24;;;;;;;;;;;;;;;20.23;90.38;101395.19;5047309;28;20396;-59
2023/08/04 11:48:49;;;;;;;;;;;;;;;20.36;86.35;101403.91;5048520;28;20008;-59
2023/08/04 11:51:14;;;;;;;;;;;;;;;20.30;86.76;101402.19;5047793;28;19917;-59
2023/08/04 11:53:43;;;;;;;;;;;;;;;20.46;86.36;101399.44;5042709;28;19917;-58
2023/08/04 11:56:09;;;;;;;;;;;;;;;20.47;87.09;101399.44;5040580;28;19983;-59
2023/08/04 11:58:35;;;;;;;;;;;;;;;20.71;82.76;101404.53;5044382;28;20441;-59
2023/08/04 12:01:01;;;;;;;;;;;;;;;20.70;82.86;101408.06;5029904;28;20007;-59
2023/08/04 12:03:40;;;;;;;;;;;;;;;20.74;83.17;101404.50;5046251;28;20030;-59
2023/08/04 12:06:11;;;;;;;;;;;;;;;20.67;83.43;101403.72;5046242;28;19959;-59
2023/08/04 12:08:39;;;;;;;;;;;;;;;20.63;83.61;101397.50;5040873;28;19917;-59
2023/08/04 12:11:04;;;;;;;;;;;;;;;20.64;81.22;101404.56;5047814;28;19916;-58
2023/08/04 12:13:34;;;;;;;;;;;;;;;20.49;82.47;101404.69;5039269;28;19928;-59
2023/08/04 12:15:59;;;;;;;;;;;;;;;20.40;81.38;101410.94;5046202;28;20287;-57
2023/08/04 12:18:25;;;;;;;;;;;;;;;20.31;83.53;101411.91;5021135;28;19936;-59
2023/08/04 12:20:50;;;;;;;;;;;;;;;20.34;81.75;101405.72;5017655;28;20434;-59